sensor_id;sensor_type;location;lat;lon;timestamp;pressure;altitude;pressure_sealevel;temperature;humidity
51147;BME280;37207;53.060;18.726;2023-04-26T00:01:50;100054.58;;;5.11;74.70
51147;BME280;37207;53.060;18.726;2023-04-26T00:04:16;100057.95;;;5.07;74.72
51147;BME280;37207;53.060;18.726;2023-04-26T00:06:43;100055.77;;;5.05;74.96
51147;BME280;37207;53.060;18.726;2023-04-26T00:09:09;100056.14;;;5.04;75.08
51147;BME280;37207;53.060;18.726;2023-04-26T00:11:36;100050.24;;;5.03;75.06
51147;BME280;37207;53.060;18.726;2023-04-26T00:14:02;100052.57;;;5.02;75.10
51147;BME280;37207;53.060;18.726;2023-04-26T00:16:29;100057.49;;;5.02;75.22
51147;BME280;37207;53.060;18.726;2023-04-26T00:18:55;100057.45;;;5.02;75.17
51147;BME280;37207;53.060;18.726;2023-04-26T00:21:22;100059.93;;;5.02;75.18
51147;BME280;37207;53.060;18.726;2023-04-26T00:23:48;100054.19;;;5.01;75.12
51147;BME280;37207;53.060;18.726;2023-04-26T00:26:15;100055.84;;;5.01;75.09
51147;BME280;37207;53.060;18.726;2023-04-26T00:28:42;100055.16;;;5.02;75.19
51147;BME280;37207;53.060;18.726;2023-04-26T00:31:13;100058.36;;;5.03;75.33
51147;BME280;37207;53.060;18.726;2023-04-26T00:33:40;100063.44;;;5.03;75.16
51147;BME280;37207;53.060;18.726;2023-04-26T00:36:07;100063.23;;;4.98;75.14
51147;BME280;37207;53.060;18.726;2023-04-26T00:38:34;100062.16;;;4.95;75.21
51147;BME280;37207;53.060;18.726;2023-04-26T00:41:00;100065.33;;;4.93;75.29
51147;BME280;37207;53.060;18.726;2023-04-26T00:43:27;100068.03;;;4.92;75.26
51147;BME280;37207;53.060;18.726;2023-04-26T00:45:53;100067.11;;;4.93;75.49
51147;BME280;37207;53.060;18.726;2023-04-26T00:48:20;100067.39;;;4.94;75.50
51147;BME280;37207;53.060;18.726;2023-04-26T00:50:47;100062.98;;;4.95;75.42
51147;BME280;37207;53.060;18.726;2023-04-26T00:53:15;100067.31;;;4.94;75.51
51147;BME280;37207;53.060;18.726;2023-04-26T00:55:42;100064.99;;;4.93;75.56
51147;BME280;37207;53.060;18.726;2023-04-26T00:58:10;100063.20;;;4.93;75.42
51147;BME280;37207;53.060;18.726;2023-04-26T01:00:36;100064.08;;;4.93;75.66
51147;BME280;37207;53.060;18.726;2023-04-26T01:03:03;100068.52;;;4.93;75.53
51147;BME280;37207;53.060;18.726;2023-04-26T01:05:29;100066.98;;;4.95;75.85
51147;BME280;37207;53.060;18.726;2023-04-26T01:07:56;100071.45;;;4.94;75.71
51147;BME280;37207;53.060;18.726;2023-04-26T01:10:25;100070.23;;;4.92;75.53
51147;BME280;37207;53.060;18.726;2023-04-26T01:12:52;100071.95;;;4.89;75.65
51147;BME280;37207;53.060;18.726;2023-04-26T01:15:18;100069.51;;;4.85;75.62
51147;BME280;37207;53.060;18.726;2023-04-26T01:17:45;100067.09;;;4.80;75.49
51147;BME280;37207;53.060;18.726;2023-04-26T01:20:12;100065.27;;;4.77;75.54
51147;BME280;37207;53.060;18.726;2023-04-26T01:22:39;100071.02;;;4.76;75.62
51147;BME280;37207;53.060;18.726;2023-04-26T01:25:10;100071.19;;;4.75;75.56
51147;BME280;37207;53.060;18.726;2023-04-26T01:27:38;100070.13;;;4.73;75.61
51147;BME280;37207;53.060;18.726;2023-04-26T01:30:05;100078.34;;;4.71;75.70
51147;BME280;37207;53.060;18.726;2023-04-26T01:32:32;100078.09;;;4.69;75.68
51147;BME280;37207;53.060;18.726;2023-04-26T01:35:00;100081.70;;;4.66;75.79
51147;BME280;37207;53.060;18.726;2023-04-26T01:37:27;100081.03;;;4.61;75.63
51147;BME280;37207;53.060;18.726;2023-04-26T01:39:53;100080.41;;;4.57;75.74
51147;BME280;37207;53.060;18.726;2023-04-26T01:42:20;100084.30;;;4.56;75.87
51147;BME280;37207;53.060;18.726;2023-04-26T01:44:47;100085.64;;;4.53;75.93
51147;BME280;37207;53.060;18.726;2023-04-26T01:47:13;100084.52;;;4.52;75.78
51147;BME280;37207;53.060;18.726;2023-04-26T01:49:40;100085.11;;;4.48;75.87
51147;BME280;37207;53.060;18.726;2023-04-26T01:52:07;100080.15;;;4.43;75.85
51147;BME280;37207;53.060;18.726;2023-04-26T01:54:33;100087.32;;;4.40;75.89
51147;BME280;37207;53.060;18.726;2023-04-26T01:57:00;100091.02;;;4.34;75.88
51147;BME280;37207;53.060;18.726;2023-04-26T01:59:27;100091.27;;;4.26;75.95
51147;BME280;37207;53.060;18.726;2023-04-26T02:01:54;100094.80;;;4.20;76.04
51147;BME280;37207;53.060;18.726;2023-04-26T02:04:20;100094.35;;;4.16;76.14
51147;BME280;37207;53.060;18.726;2023-04-26T02:06:47;100096.30;;;4.11;76.12
51147;BME280;37207;53.060;18.726;2023-04-26T02:09:16;100096.77;;;4.09;76.45
51147;BME280;37207;53.060;18.726;2023-04-26T02:11:43;100094.99;;;4.06;76.44
51147;BME280;37207;53.060;18.726;2023-04-26T02:14:10;100092.26;;;4.04;76.50
51147;BME280;37207;53.060;18.726;2023-04-26T02:16:38;100090.95;;;4.04;76.61
51147;BME280;37207;53.060;18.726;2023-04-26T02:19:06;100090.59;;;4.03;76.64
51147;BME280;37207;53.060;18.726;2023-04-26T02:21:56;100086.52;;;4.01;76.68
51147;BME280;37207;53.060;18.726;2023-04-26T02:24:24;100084.66;;;4.01;76.59
51147;BME280;37207;53.060;18.726;2023-04-26T02:26:51;100084.48;;;4.02;76.81
51147;BME280;37207;53.060;18.726;2023-04-26T02:29:19;100085.31;;;4.00;76.73
51147;BME280;37207;53.060;18.726;2023-04-26T02:31:46;100079.27;;;3.98;76.95
51147;BME280;37207;53.060;18.726;2023-04-26T02:34:14;100076.05;;;3.98;77.09
51147;BME280;37207;53.060;18.726;2023-04-26T02:36:40;100075.21;;;3.99;76.97
51147;BME280;37207;53.060;18.726;2023-04-26T02:39:07;100074.36;;;4.01;77.09
51147;BME280;37207;53.060;18.726;2023-04-26T02:41:34;100077.00;;;4.01;77.15
51147;BME280;37207;53.060;18.726;2023-04-26T02:44:01;100077.16;;;4.03;77.15
51147;BME280;37207;53.060;18.726;2023-04-26T02:46:27;100081.77;;;4.07;77.30
51147;BME280;37207;53.060;18.726;2023-04-26T02:48:54;100080.83;;;4.10;77.29
51147;BME280;37207;53.060;18.726;2023-04-26T02:51:21;100078.59;;;4.14;77.36
51147;BME280;37207;53.060;18.726;2023-04-26T02:53:47;100078.63;;;4.15;77.19
51147;BME280;37207;53.060;18.726;2023-04-26T02:56:14;100077.61;;;4.16;77.27
51147;BME280;37207;53.060;18.726;2023-04-26T02:58:41;100083.95;;;4.18;77.29
51147;BME280;37207;53.060;18.726;2023-04-26T03:01:08;100082.25;;;4.19;77.32
51147;BME280;37207;53.060;18.726;2023-04-26T03:03:34;100080.16;;;4.19;77.28
51147;BME280;37207;53.060;18.726;2023-04-26T03:06:02;100082.29;;;4.20;77.37
51147;BME280;37207;53.060;18.726;2023-04-26T03:08:29;100086.73;;;4.23;77.39
51147;BME280;37207;53.060;18.726;2023-04-26T03:10:56;100085.77;;;4.25;77.25
51147;BME280;37207;53.060;18.726;2023-04-26T03:13:22;100088.95;;;4.26;76.98
51147;BME280;37207;53.060;18.726;2023-04-26T03:15:50;100089.23;;;4.25;77.00
51147;BME280;37207;53.060;18.726;2023-04-26T03:18:20;100094.96;;;4.22;76.85
51147;BME280;37207;53.060;18.726;2023-04-26T03:20:47;100100.54;;;4.19;76.88
51147;BME280;37207;53.060;18.726;2023-04-26T03:23:14;100100.83;;;4.17;76.86
51147;BME280;37207;53.060;18.726;2023-04-26T03:25:41;100104.02;;;4.15;76.88
51147;BME280;37207;53.060;18.726;2023-04-26T03:28:08;100103.34;;;4.12;76.93
51147;BME280;37207;53.060;18.726;2023-04-26T03:30:34;100107.51;;;4.12;77.01
51147;BME280;37207;53.060;18.726;2023-04-26T03:33:01;100109.05;;;4.10;76.98
51147;BME280;37207;53.060;18.726;2023-04-26T03:35:27;100113.70;;;4.07;76.98
51147;BME280;37207;53.060;18.726;2023-04-26T03:37:54;100111.05;;;4.03;76.88
51147;BME280;37207;53.060;18.726;2023-04-26T03:40:21;100111.30;;;4.00;76.92
51147;BME280;37207;53.060;18.726;2023-04-26T03:42:47;100115.36;;;4.03;77.08
51147;BME280;37207;53.060;18.726;2023-04-26T03:45:15;100118.67;;;4.03;77.17
51147;BME280;37207;53.060;18.726;2023-04-26T03:47:41;100118.61;;;4.03;77.09
51147;BME280;37207;53.060;18.726;2023-04-26T03:50:09;100120.77;;;4.02;77.10
51147;BME280;37207;53.060;18.726;2023-04-26T03:52:36;100124.71;;;4.01;77.13
51147;BME280;37207;53.060;18.726;2023-04-26T03:55:03;100126.35;;;4.03;77.31
51147;BME280;37207;53.060;18.726;2023-04-26T03:57:30;100127.75;;;4.09;77.27
51147;BME280;37207;53.060;18.726;2023-04-26T03:59:56;100129.91;;;4.15;77.33
51147;BME280;37207;53.060;18.726;2023-04-26T04:02:23;100128.28;;;4.21;77.28
51147;BME280;37207;53.060;18.726;2023-04-26T04:04:50;100127.80;;;4.27;77.18
51147;BME280;37207;53.060;18.726;2023-04-26T04:07:17;100130.46;;;4.29;77.02
51147;BME280;37207;53.060;18.726;2023-04-26T04:09:44;100127.34;;;4.29;77.00
51147;BME280;37207;53.060;18.726;2023-04-26T04:12:11;100131.74;;;4.30;76.93
51147;BME280;37207;53.060;18.726;2023-04-26T04:14:38;100134.39;;;4.32;76.84
51147;BME280;37207;53.060;18.726;2023-04-26T04:17:06;100135.92;;;4.34;76.96
51147;BME280;37207;53.060;18.726;2023-04-26T04:19:34;100138.59;;;4.44;76.96
51147;BME280;37207;53.060;18.726;2023-04-26T04:22:01;100141.60;;;4.55;76.96
51147;BME280;37207;53.060;18.726;2023-04-26T04:24:28;100139.69;;;4.82;77.31
51147;BME280;37207;53.060;18.726;2023-04-26T04:26:56;100141.45;;;5.13;77.31
51147;BME280;37207;53.060;18.726;2023-04-26T04:29:22;100141.34;;;5.37;76.75
51147;BME280;37207;53.060;18.726;2023-04-26T04:31:49;100142.89;;;5.51;76.19
51147;BME280;37207;53.060;18.726;2023-04-26T04:34:16;100143.09;;;5.61;75.83
51147;BME280;37207;53.060;18.726;2023-04-26T04:36:43;100140.92;;;5.63;75.31
51147;BME280;37207;53.060;18.726;2023-04-26T04:39:10;100141.06;;;5.71;75.16
51147;BME280;37207;53.060;18.726;2023-04-26T04:41:42;100139.47;;;5.75;74.79
51147;BME280;37207;53.060;18.726;2023-04-26T04:44:16;100137.89;;;5.74;74.47
51147;BME280;37207;53.060;18.726;2023-04-26T04:46:43;100146.31;;;5.71;74.46
51147;BME280;37207;53.060;18.726;2023-04-26T04:49:11;100143.64;;;5.73;74.44
51147;BME280;37207;53.060;18.726;2023-04-26T04:51:38;100144.34;;;5.73;74.46
51147;BME280;37207;53.060;18.726;2023-04-26T04:54:15;100145.35;;;5.73;74.55
51147;BME280;37207;53.060;18.726;2023-04-26T04:56:42;100146.56;;;5.84;74.48
51147;BME280;37207;53.060;18.726;2023-04-26T04:59:10;100149.96;;;5.87;74.03
51147;BME280;37207;53.060;18.726;2023-04-26T05:01:37;100149.58;;;5.87;74.16
51147;BME280;37207;53.060;18.726;2023-04-26T05:04:07;100153.60;;;5.86;74.26
51147;BME280;37207;53.060;18.726;2023-04-26T05:06:34;100157.09;;;5.78;73.87
51147;BME280;37207;53.060;18.726;2023-04-26T05:09:01;100159.09;;;5.68;73.76
51147;BME280;37207;53.060;18.726;2023-04-26T05:11:31;100163.59;;;5.56;73.79
51147;BME280;37207;53.060;18.726;2023-04-26T05:13:58;100161.52;;;5.49;73.93
51147;BME280;37207;53.060;18.726;2023-04-26T05:16:25;100162.14;;;5.46;74.15
51147;BME280;37207;53.060;18.726;2023-04-26T05:18:52;100167.38;;;5.44;74.29
51147;BME280;37207;53.060;18.726;2023-04-26T05:21:20;100168.80;;;5.42;74.13
51147;BME280;37207;53.060;18.726;2023-04-26T05:23:47;100167.55;;;5.42;74.28
51147;BME280;37207;53.060;18.726;2023-04-26T05:26:15;100168.89;;;5.42;74.32
51147;BME280;37207;53.060;18.726;2023-04-26T05:28:54;100170.39;;;5.43;74.11
51147;BME280;37207;53.060;18.726;2023-04-26T05:31:20;100167.59;;;5.43;74.06
51147;BME280;37207;53.060;18.726;2023-04-26T05:34:07;100175.59;;;5.48;74.37
51147;BME280;37207;53.060;18.726;2023-04-26T05:36:39;100181.25;;;5.51;74.12
51147;BME280;37207;53.060;18.726;2023-04-26T05:39:06;100178.75;;;5.47;73.77
51147;BME280;37207;53.060;18.726;2023-04-26T05:41:33;100181.95;;;5.47;74.10
51147;BME280;37207;53.060;18.726;2023-04-26T05:44:00;100180.02;;;5.53;74.25
51147;BME280;37207;53.060;18.726;2023-04-26T05:46:27;100173.02;;;5.61;74.02
51147;BME280;37207;53.060;18.726;2023-04-26T05:48:54;100176.14;;;5.66;74.01
51147;BME280;37207;53.060;18.726;2023-04-26T05:51:21;100177.94;;;5.70;73.84
51147;BME280;37207;53.060;18.726;2023-04-26T05:53:48;100177.95;;;5.74;74.04
51147;BME280;37207;53.060;18.726;2023-04-26T05:56:14;100180.69;;;5.78;73.69
51147;BME280;37207;53.060;18.726;2023-04-26T05:58:41;100184.13;;;5.82;73.45
51147;BME280;37207;53.060;18.726;2023-04-26T06:01:09;100180.50;;;5.82;73.37
51147;BME280;37207;53.060;18.726;2023-04-26T06:03:37;100189.27;;;5.86;73.60
51147;BME280;37207;53.060;18.726;2023-04-26T06:06:04;100186.23;;;5.89;73.14
51147;BME280;37207;53.060;18.726;2023-04-26T06:08:31;100184.77;;;5.93;72.89
51147;BME280;37207;53.060;18.726;2023-04-26T06:10:57;100180.80;;;5.94;72.65
51147;BME280;37207;53.060;18.726;2023-04-26T06:13:24;100180.34;;;5.98;72.88
51147;BME280;37207;53.060;18.726;2023-04-26T06:15:52;100176.77;;;6.05;73.00
51147;BME280;37207;53.060;18.726;2023-04-26T06:18:19;100185.79;;;6.13;72.56
51147;BME280;37207;53.060;18.726;2023-04-26T06:20:46;100183.75;;;6.20;72.34
51147;BME280;37207;53.060;18.726;2023-04-26T06:23:13;100182.46;;;6.27;71.91
51147;BME280;37207;53.060;18.726;2023-04-26T06:25:40;100186.14;;;6.37;71.85
51147;BME280;37207;53.060;18.726;2023-04-26T06:28:13;100185.66;;;6.43;71.56
51147;BME280;37207;53.060;18.726;2023-04-26T06:30:41;100182.73;;;6.50;71.29
51147;BME280;37207;53.060;18.726;2023-04-26T06:33:07;100180.45;;;6.58;71.29
51147;BME280;37207;53.060;18.726;2023-04-26T06:35:39;100187.74;;;6.71;71.08
51147;BME280;37207;53.060;18.726;2023-04-26T06:38:07;100185.68;;;6.80;70.02
51147;BME280;37207;53.060;18.726;2023-04-26T06:40:34;100183.30;;;6.83;69.18
51147;BME280;37207;53.060;18.726;2023-04-26T06:43:02;100184.25;;;6.86;68.89
51147;BME280;37207;53.060;18.726;2023-04-26T06:45:40;100188.16;;;6.95;68.78
51147;BME280;37207;53.060;18.726;2023-04-26T06:48:06;100187.45;;;7.00;67.93
51147;BME280;37207;53.060;18.726;2023-04-26T06:50:36;100189.77;;;6.98;67.70
51147;BME280;37207;53.060;18.726;2023-04-26T06:53:04;100189.73;;;7.06;68.22
51147;BME280;37207;53.060;18.726;2023-04-26T06:55:31;100187.19;;;7.23;68.49
51147;BME280;37207;53.060;18.726;2023-04-26T06:57:57;100194.30;;;7.45;67.93
51147;BME280;37207;53.060;18.726;2023-04-26T07:00:24;100189.35;;;7.62;66.40
51147;BME280;37207;53.060;18.726;2023-04-26T07:02:50;100193.33;;;7.70;65.69
51147;BME280;37207;53.060;18.726;2023-04-26T07:05:17;100192.62;;;7.75;65.25
51147;BME280;37207;53.060;18.726;2023-04-26T07:07:44;100196.25;;;7.84;65.50
51147;BME280;37207;53.060;18.726;2023-04-26T07:10:10;100189.36;;;7.88;65.19
51147;BME280;37207;53.060;18.726;2023-04-26T07:12:37;100194.13;;;7.98;65.60
51147;BME280;37207;53.060;18.726;2023-04-26T07:15:04;100192.38;;;8.16;64.25
51147;BME280;37207;53.060;18.726;2023-04-26T07:17:32;100198.83;;;8.28;63.54
51147;BME280;37207;53.060;18.726;2023-04-26T07:19:59;100200.41;;;8.45;62.85
51147;BME280;37207;53.060;18.726;2023-04-26T07:22:26;100203.27;;;8.60;62.33
51147;BME280;37207;53.060;18.726;2023-04-26T07:24:53;100194.27;;;8.53;60.36
51147;BME280;37207;53.060;18.726;2023-04-26T07:27:19;100192.62;;;8.53;60.68
51147;BME280;37207;53.060;18.726;2023-04-26T07:29:46;100198.04;;;8.65;61.03
51147;BME280;37207;53.060;18.726;2023-04-26T07:32:12;100196.31;;;8.89;62.09
51147;BME280;37207;53.060;18.726;2023-04-26T07:34:39;100200.15;;;8.96;60.67
51147;BME280;37207;53.060;18.726;2023-04-26T07:37:06;100196.70;;;8.98;59.04
51147;BME280;37207;53.060;18.726;2023-04-26T07:39:33;100192.96;;;9.04;58.49
51147;BME280;37207;53.060;18.726;2023-04-26T07:41:59;100202.23;;;8.90;58.35
51147;BME280;37207;53.060;18.726;2023-04-26T07:44:26;100204.54;;;8.94;58.61
51147;BME280;37207;53.060;18.726;2023-04-26T07:46:52;100205.02;;;9.21;59.08
51147;BME280;37207;53.060;18.726;2023-04-26T07:49:19;100205.88;;;9.46;57.35
51147;BME280;37207;53.060;18.726;2023-04-26T07:51:45;100206.69;;;9.47;56.26
51147;BME280;37207;53.060;18.726;2023-04-26T07:54:12;100211.86;;;9.65;55.43
51147;BME280;37207;53.060;18.726;2023-04-26T07:56:39;100207.19;;;9.71;55.26
51147;BME280;37207;53.060;18.726;2023-04-26T07:59:05;100205.27;;;9.67;55.28
51147;BME280;37207;53.060;18.726;2023-04-26T08:01:32;100215.35;;;9.62;55.22
51147;BME280;37207;53.060;18.726;2023-04-26T08:03:59;100224.54;;;9.38;54.14
51147;BME280;37207;53.060;18.726;2023-04-26T08:06:25;100223.52;;;9.17;53.28
51147;BME280;37207;53.060;18.726;2023-04-26T08:08:52;100228.16;;;9.20;53.10
51147;BME280;37207;53.060;18.726;2023-04-26T08:11:19;100228.85;;;9.38;52.82
51147;BME280;37207;53.060;18.726;2023-04-26T08:13:47;100219.67;;;9.65;53.36
51147;BME280;37207;53.060;18.726;2023-04-26T08:16:13;100224.44;;;9.94;52.32
51147;BME280;37207;53.060;18.726;2023-04-26T08:18:40;100217.60;;;10.19;52.71
51147;BME280;37207;53.060;18.726;2023-04-26T08:21:07;100223.55;;;10.55;52.14
51147;BME280;37207;53.060;18.726;2023-04-26T08:23:34;100220.44;;;10.88;51.61
51147;BME280;37207;53.060;18.726;2023-04-26T08:26:01;100219.48;;;11.23;51.34
51147;BME280;37207;53.060;18.726;2023-04-26T08:28:28;100224.90;;;11.43;50.74
51147;BME280;37207;53.060;18.726;2023-04-26T08:30:54;100220.60;;;11.54;49.86
51147;BME280;37207;53.060;18.726;2023-04-26T08:33:21;100220.63;;;11.72;50.19
51147;BME280;37207;53.060;18.726;2023-04-26T08:35:48;100214.70;;;12.02;50.57
51147;BME280;37207;53.060;18.726;2023-04-26T08:38:15;100215.84;;;12.21;49.98
51147;BME280;37207;53.060;18.726;2023-04-26T08:40:42;100218.97;;;12.07;48.87
51147;BME280;37207;53.060;18.726;2023-04-26T08:43:13;100224.46;;;11.77;48.62
51147;BME280;37207;53.060;18.726;2023-04-26T08:45:44;100231.38;;;11.37;47.42
51147;BME280;37207;53.060;18.726;2023-04-26T08:48:12;100230.05;;;10.94;47.93
51147;BME280;37207;53.060;18.726;2023-04-26T08:50:43;100234.77;;;10.57;48.15
51147;BME280;37207;53.060;18.726;2023-04-26T08:53:13;100230.23;;;10.30;49.19
51147;BME280;37207;53.060;18.726;2023-04-26T08:55:44;100236.45;;;10.35;50.36
51147;BME280;37207;53.060;18.726;2023-04-26T08:58:13;100236.85;;;10.63;50.40
51147;BME280;37207;53.060;18.726;2023-04-26T09:00:42;100236.70;;;10.83;50.56
51147;BME280;37207;53.060;18.726;2023-04-26T09:03:10;100240.15;;;10.81;49.17
51147;BME280;37207;53.060;18.726;2023-04-26T09:05:40;100243.13;;;10.53;49.18
51147;BME280;37207;53.060;18.726;2023-04-26T09:08:15;100247.87;;;10.20;49.01
51147;BME280;37207;53.060;18.726;2023-04-26T09:10:42;100248.89;;;9.91;49.37
51147;BME280;37207;53.060;18.726;2023-04-26T09:13:09;100246.52;;;9.72;50.34
51147;BME280;37207;53.060;18.726;2023-04-26T09:15:36;100256.69;;;9.65;50.50
51147;BME280;37207;53.060;18.726;2023-04-26T09:20:44;100256.10;;;9.96;51.10
51147;BME280;37207;53.060;18.726;2023-04-26T09:23:11;100254.40;;;10.42;52.03
51147;BME280;37207;53.060;18.726;2023-04-26T09:25:37;100255.73;;;10.94;51.31
51147;BME280;37207;53.060;18.726;2023-04-26T09:28:18;100253.30;;;11.15;50.37
51147;BME280;37207;53.060;18.726;2023-04-26T09:30:47;100258.70;;;11.06;49.14
51147;BME280;37207;53.060;18.726;2023-04-26T09:33:14;100259.44;;;10.71;48.50
51147;BME280;37207;53.060;18.726;2023-04-26T09:35:42;100264.55;;;10.36;49.54
51147;BME280;37207;53.060;18.726;2023-04-26T09:38:14;100273.70;;;9.99;49.72
51147;BME280;37207;53.060;18.726;2023-04-26T09:40:46;100275.90;;;9.66;50.55
51147;BME280;37207;53.060;18.726;2023-04-26T09:43:14;100279.09;;;9.38;51.18
51147;BME280;37207;53.060;18.726;2023-04-26T09:45:46;100286.20;;;9.13;51.54
51147;BME280;37207;53.060;18.726;2023-04-26T09:48:25;100289.05;;;8.89;52.39
51147;BME280;37207;53.060;18.726;2023-04-26T09:50:55;100290.71;;;8.81;52.99
51147;BME280;37207;53.060;18.726;2023-04-26T09:58:37;100294.04;;;9.19;53.62
51147;BME280;37207;53.060;18.726;2023-04-26T10:01:04;100291.20;;;9.33;53.01
51147;BME280;37207;53.060;18.726;2023-04-26T10:03:35;100291.38;;;9.45;53.39
51147;BME280;37207;53.060;18.726;2023-04-26T10:06:03;100292.96;;;9.53;52.84
51147;BME280;37207;53.060;18.726;2023-04-26T10:08:30;100292.83;;;9.55;52.50
51147;BME280;37207;53.060;18.726;2023-04-26T10:10:59;100293.00;;;9.51;52.71
51147;BME280;37207;53.060;18.726;2023-04-26T10:13:26;100293.37;;;9.48;53.18
51147;BME280;37207;53.060;18.726;2023-04-26T10:15:54;100294.84;;;9.45;53.49
51147;BME280;37207;53.060;18.726;2023-04-26T10:18:21;100299.48;;;9.40;53.39
51147;BME280;37207;53.060;18.726;2023-04-26T10:20:51;100295.60;;;9.31;53.70
51147;BME280;37207;53.060;18.726;2023-04-26T10:23:21;100302.48;;;9.22;53.93
51147;BME280;37207;53.060;18.726;2023-04-26T10:25:51;100310.64;;;9.11;54.10
51147;BME280;37207;53.060;18.726;2023-04-26T10:31:10;100315.44;;;8.73;54.32
51147;BME280;37207;53.060;18.726;2023-04-26T10:33:37;100314.81;;;8.63;55.18
51147;BME280;37207;53.060;18.726;2023-04-26T10:38:31;100317.58;;;8.64;56.01
51147;BME280;37207;53.060;18.726;2023-04-26T10:41:26;100318.88;;;8.73;56.29
51147;BME280;37207;53.060;18.726;2023-04-26T10:43:53;100321.93;;;8.98;55.96
51147;BME280;37207;53.060;18.726;2023-04-26T10:46:38;100316.95;;;9.33;55.78
51147;BME280;37207;53.060;18.726;2023-04-26T10:49:13;100315.13;;;10.34;54.53
51147;BME280;37207;53.060;18.726;2023-04-26T10:51:40;100310.52;;;11.14;54.73
51147;BME280;37207;53.060;18.726;2023-04-26T10:54:07;100312.41;;;11.65;52.77
51147;BME280;37207;53.060;18.726;2023-04-26T10:59:11;100309.20;;;11.45;50.04
51147;BME280;37207;53.060;18.726;2023-04-26T11:01:38;100312.50;;;11.42;50.08
51147;BME280;37207;53.060;18.726;2023-04-26T11:04:11;100315.04;;;11.84;49.62
51147;BME280;37207;53.060;18.726;2023-04-26T11:06:52;100314.11;;;11.93;49.28
51147;BME280;37207;53.060;18.726;2023-04-26T11:12:04;100316.09;;;11.47;49.78
51147;BME280;37207;53.060;18.726;2023-04-26T11:14:34;100326.05;;;11.22;50.11
51147;BME280;37207;53.060;18.726;2023-04-26T11:17:05;100327.91;;;10.91;49.87
51147;BME280;37207;53.060;18.726;2023-04-26T11:19:31;100337.11;;;10.65;50.15
51147;BME280;37207;53.060;18.726;2023-04-26T11:21:59;100335.89;;;10.42;50.49
51147;BME280;37207;53.060;18.726;2023-04-26T11:24:27;100333.40;;;10.21;50.05
51147;BME280;37207;53.060;18.726;2023-04-26T11:26:56;100331.91;;;10.02;50.37
51147;BME280;37207;53.060;18.726;2023-04-26T11:29:24;100338.98;;;9.91;50.66
51147;BME280;37207;53.060;18.726;2023-04-26T11:31:55;100336.96;;;9.79;50.37
51147;BME280;37207;53.060;18.726;2023-04-26T11:34:34;100340.27;;;9.69;51.17
51147;BME280;37207;53.060;18.726;2023-04-26T11:37:03;100348.52;;;9.62;51.34
51147;BME280;37207;53.060;18.726;2023-04-26T11:39:33;100346.85;;;9.52;50.84
51147;BME280;37207;53.060;18.726;2023-04-26T11:42:06;100346.95;;;9.39;50.99
51147;BME280;37207;53.060;18.726;2023-04-26T11:44:34;100350.45;;;9.30;51.56
51147;BME280;37207;53.060;18.726;2023-04-26T11:47:01;100353.36;;;9.29;52.22
51147;BME280;37207;53.060;18.726;2023-04-26T11:49:32;100359.33;;;9.30;52.48
51147;BME280;37207;53.060;18.726;2023-04-26T11:51:59;100357.91;;;9.29;52.29
51147;BME280;37207;53.060;18.726;2023-04-26T11:54:34;100359.11;;;9.29;52.50
51147;BME280;37207;53.060;18.726;2023-04-26T11:57:18;100360.55;;;9.27;52.22
51147;BME280;37207;53.060;18.726;2023-04-26T11:59:45;100358.33;;;9.19;52.24
51147;BME280;37207;53.060;18.726;2023-04-26T12:02:11;100361.14;;;9.08;51.96
51147;BME280;37207;53.060;18.726;2023-04-26T12:04:38;100362.42;;;8.99;52.20
51147;BME280;37207;53.060;18.726;2023-04-26T12:07:06;100369.04;;;8.89;51.61
51147;BME280;37207;53.060;18.726;2023-04-26T12:09:32;100371.08;;;8.80;51.36
51147;BME280;37207;53.060;18.726;2023-04-26T12:12:00;100369.36;;;8.73;51.69
51147;BME280;37207;53.060;18.726;2023-04-26T12:14:34;100365.85;;;8.76;51.76
51147;BME280;37207;53.060;18.726;2023-04-26T12:17:02;100367.44;;;8.81;51.26
51147;BME280;37207;53.060;18.726;2023-04-26T12:19:36;100367.66;;;8.91;51.49
51147;BME280;37207;53.060;18.726;2023-04-26T12:22:04;100366.41;;;9.09;51.73
51147;BME280;37207;53.060;18.726;2023-04-26T12:24:32;100365.79;;;9.43;52.08
51147;BME280;37207;53.060;18.726;2023-04-26T12:27:00;100366.47;;;9.86;51.33
51147;BME280;37207;53.060;18.726;2023-04-26T12:29:28;100361.99;;;10.37;51.07
51147;BME280;37207;53.060;18.726;2023-04-26T12:31:56;100357.01;;;10.91;50.79
51147;BME280;37207;53.060;18.726;2023-04-26T12:34:23;100357.50;;;11.27;49.14
51147;BME280;37207;53.060;18.726;2023-04-26T12:36:50;100360.83;;;11.42;47.32
51147;BME280;37207;53.060;18.726;2023-04-26T12:39:17;100362.93;;;11.28;45.98
51147;BME280;37207;53.060;18.726;2023-04-26T12:41:44;100367.86;;;11.08;46.36
51147;BME280;37207;53.060;18.726;2023-04-26T12:44:11;100377.48;;;10.87;45.93
51147;BME280;37207;53.060;18.726;2023-04-26T12:46:39;100373.85;;;10.68;46.42
51147;BME280;37207;53.060;18.726;2023-04-26T12:49:06;100375.91;;;10.55;46.90
51147;BME280;37207;53.060;18.726;2023-04-26T12:51:33;100381.67;;;10.53;47.14
51147;BME280;37207;53.060;18.726;2023-04-26T12:53:59;100381.11;;;10.67;48.08
51147;BME280;37207;53.060;18.726;2023-04-26T12:56:28;100383.56;;;10.80;46.98
51147;BME280;37207;53.060;18.726;2023-04-26T12:58:55;100380.80;;;10.73;47.17
51147;BME280;37207;53.060;18.726;2023-04-26T13:01:22;100381.90;;;10.58;47.23
51147;BME280;37207;53.060;18.726;2023-04-26T13:03:48;100383.70;;;10.37;47.51
51147;BME280;37207;53.060;18.726;2023-04-26T13:06:15;100385.70;;;10.16;47.94
51147;BME280;37207;53.060;18.726;2023-04-26T13:08:42;100382.88;;;10.00;48.61
51147;BME280;37207;53.060;18.726;2023-04-26T13:11:08;100379.67;;;9.87;48.45